createdAt,value
2022-12-18T00:01:32.424Z,102685.06
2022-12-18T00:03:59.058Z,102682.78
2022-12-18T00:06:26.436Z,102686.38
2022-12-18T00:08:53.057Z,102690.63
2022-12-18T00:11:20.947Z,102690.03
2022-12-18T00:13:47.687Z,102683.97
2022-12-18T00:16:15.211Z,102686.72
2022-12-18T00:18:42.509Z,102687.31
2022-12-18T00:21:11.016Z,102683.50
2022-12-18T00:23:38.812Z,102694.66
2022-12-18T00:26:07.622Z,102695.56
2022-12-18T00:28:33.933Z,102699.47
2022-12-18T00:31:07.693Z,102700.97
2022-12-18T00:33:34.494Z,102702.06
2022-12-18T00:36:03.869Z,102701.19
2022-12-18T00:38:30.171Z,102707.31
2022-12-18T00:40:56.482Z,102698.66
2022-12-18T00:43:22.784Z,102690.19
2022-12-18T00:45:49.130Z,102690.47
2022-12-18T00:48:15.653Z,102695.56
2022-12-18T00:50:41.921Z,102695.53
2022-12-18T00:53:08.208Z,102697.88
2022-12-18T00:55:34.510Z,102691.66
2022-12-18T00:58:00.789Z,102680.06
2022-12-18T01:00:27.124Z,102677.06
2022-12-18T01:02:53.597Z,102687.84
2022-12-18T01:05:20.093Z,102687.47
2022-12-18T01:07:46.403Z,102687.91
2022-12-18T01:10:13.346Z,102693.50
2022-12-18T01:12:39.938Z,102705.72
2022-12-18T01:15:07.255Z,102700.91
2022-12-18T01:17:33.709Z,102704.84
2022-12-18T01:19:59.958Z,102704.72
2022-12-18T01:22:26.217Z,102702.78
2022-12-18T01:24:52.486Z,102706.38
2022-12-18T01:27:18.992Z,102693.88
2022-12-18T01:29:45.301Z,102695.53
2022-12-18T01:32:11.633Z,102703.38
2022-12-18T01:34:38.157Z,102701.56
2022-12-18T01:37:05.564Z,102704.75
2022-12-18T01:39:32.904Z,102717.25
2022-12-18T01:42:19.453Z,102742.06
2022-12-18T01:45:02.722Z,102742.66
2022-12-18T01:47:31.726Z,102744.59
2022-12-18T01:49:59.427Z,102754.69
2022-12-18T01:52:26.963Z,102760.75
2022-12-18T01:54:54.092Z,102756.97
2022-12-18T01:57:21.031Z,102749.56
2022-12-18T01:59:51.378Z,102746.25
2022-12-18T02:02:18.686Z,102749.88
2022-12-18T02:04:49.388Z,102749.13
2022-12-18T02:07:15.986Z,102753.53
2022-12-18T02:09:51.031Z,102737.47
2022-12-18T02:12:25.464Z,102742.84
2022-12-18T02:15:03.553Z,102753.84
2022-12-18T02:17:50.068Z,102746.44
2022-12-18T02:20:32.819Z,102750.66
2022-12-18T02:23:07.028Z,102748.44
2022-12-18T02:25:52.074Z,102757.34
2022-12-18T02:28:21.091Z,102759.81
2022-12-18T02:30:49.359Z,102756.00
2022-12-18T02:33:16.462Z,102758.44
2022-12-18T02:35:43.999Z,102758.25
2022-12-18T02:38:10.460Z,102752.03
2022-12-18T02:40:37.683Z,102752.81
2022-12-18T02:43:11.259Z,102749.91
2022-12-18T02:45:38.256Z,102765.47
2022-12-18T02:48:04.693Z,102756.13
2022-12-18T02:50:34.033Z,102756.84
2022-12-18T02:53:09.434Z,102762.75
2022-12-18T02:55:56.991Z,102759.72
2022-12-18T02:58:42.059Z,102757.56
2022-12-18T03:01:13.024Z,102772.66
2022-12-18T03:03:42.599Z,102768.88
2022-12-18T03:06:11.216Z,102765.22
2022-12-18T03:08:39.408Z,102766.72
2022-12-18T03:11:06.979Z,102771.56
2022-12-18T03:13:36.804Z,102769.00
2022-12-18T03:16:06.090Z,102779.25
2022-12-18T03:18:38.634Z,102761.72
2022-12-18T03:21:06.359Z,102755.50
2022-12-18T03:23:41.748Z,102754.59
2022-12-18T03:26:10.342Z,102756.09
2022-12-18T03:28:39.588Z,102754.28
2022-12-18T03:31:09.042Z,102755.03
2022-12-18T03:33:51.895Z,102749.16
2022-12-18T03:36:18.359Z,102744.78
2022-12-18T03:38:44.741Z,102751.88
2022-12-18T03:41:14.082Z,102757.16
2022-12-18T03:43:59.258Z,102751.63
2022-12-18T03:46:31.380Z,102754.59
2022-12-18T03:49:09.615Z,102750.94
2022-12-18T03:51:40.470Z,102749.63
2022-12-18T03:54:09.181Z,102745.91
2022-12-18T03:56:41.159Z,102740.94
2022-12-18T03:59:09.023Z,102742.25
2022-12-18T04:01:38.870Z,102744.50
2022-12-18T04:04:05.906Z,102747.22
2022-12-18T04:06:32.984Z,102748.13
2022-12-18T04:08:59.553Z,102747.53
2022-12-18T04:11:25.987Z,102743.00
2022-12-18T04:13:56.142Z,102734.25
2022-12-18T04:16:22.560Z,102738.28
2022-12-18T04:18:48.806Z,102732.56
2022-12-18T04:21:17.181Z,102737.53
2022-12-18T04:23:43.624Z,102735.72
2022-12-18T04:26:10.070Z,102734.25
2022-12-18T04:28:36.329Z,102737.44
2022-12-18T04:31:03.446Z,102745.44
2022-12-18T04:33:29.796Z,102761.88
2022-12-18T04:35:56.060Z,102766.44
2022-12-18T04:38:22.349Z,102771.44
2022-12-18T04:40:48.622Z,102774.00
2022-12-18T04:43:15.051Z,102773.06
2022-12-18T04:45:41.451Z,102780.63
2022-12-18T04:48:07.752Z,102778.03
2022-12-18T04:50:34.015Z,102785.16
2022-12-18T04:53:00.287Z,102792.84
2022-12-18T04:55:27.125Z,102784.69
2022-12-18T04:57:53.640Z,102787.84
2022-12-18T05:00:20.147Z,102786.78
2022-12-18T05:02:46.551Z,102776.44
2022-12-18T05:05:13.190Z,102779.44
2022-12-18T05:07:39.531Z,102777.78
2022-12-18T05:10:06.128Z,102774.22
2022-12-18T05:12:32.832Z,102775.31
2022-12-18T05:14:59.172Z,102783.13
2022-12-18T05:17:25.452Z,102794.31
2022-12-18T05:19:51.730Z,102803.84
2022-12-18T05:22:18.001Z,102802.34
2022-12-18T05:24:44.286Z,102796.47
2022-12-18T05:27:10.597Z,102795.25
2022-12-18T05:29:36.866Z,102798.53
2022-12-18T05:32:03.266Z,102785.88
2022-12-18T05:34:29.657Z,102787.72
2022-12-18T05:36:55.950Z,102800.53
2022-12-18T05:39:22.199Z,102791.75
2022-12-18T05:41:48.480Z,102793.72
2022-12-18T05:44:14.763Z,102797.97
2022-12-18T05:46:42.203Z,102794.50
2022-12-18T05:49:08.464Z,102794.31
2022-12-18T05:51:34.782Z,102794.91
2022-12-18T05:54:01.065Z,102803.19
2022-12-18T05:56:27.309Z,102803.97
2022-12-18T05:58:54.179Z,102801.38
2022-12-18T06:01:22.454Z,102797.16
2022-12-18T06:03:48.912Z,102804.69
2022-12-18T06:06:15.576Z,102801.81
2022-12-18T06:08:46.175Z,102811.31
2022-12-18T06:11:12.932Z,102821.59
2022-12-18T06:13:39.986Z,102815.94
2022-12-18T06:16:06.811Z,102807.78
2022-12-18T06:18:33.524Z,102810.19
2022-12-18T06:21:00.464Z,102808.19
2022-12-18T06:23:26.962Z,102811.47
2022-12-18T06:25:53.263Z,102817.03
2022-12-18T06:28:19.535Z,102814.91
2022-12-18T06:30:47.795Z,102808.53
2022-12-18T06:33:14.055Z,102826.13
2022-12-18T06:35:40.380Z,102829.28
2022-12-18T06:38:06.688Z,102830.44
2022-12-18T06:40:33.024Z,102828.47
2022-12-18T06:42:59.358Z,102829.94
2022-12-18T06:45:25.689Z,102832.50
2022-12-18T06:47:52.398Z,102823.75
2022-12-18T06:50:18.824Z,102832.19
2022-12-18T06:52:45.086Z,102838.78
2022-12-18T06:55:12.106Z,102846.47
2022-12-18T06:57:38.706Z,102838.63
2022-12-18T07:00:06.688Z,102835.00
2022-12-18T07:02:33.393Z,102843.28
2022-12-18T07:04:59.887Z,102848.75
2022-12-18T07:07:26.131Z,102853.69
2022-12-18T07:09:52.814Z,102848.41
2022-12-18T07:12:19.539Z,102844.91
2022-12-18T07:14:45.850Z,102853.00
2022-12-18T07:17:12.209Z,102848.69
2022-12-18T07:19:38.515Z,102851.50
2022-12-18T07:22:04.757Z,102859.03
2022-12-18T07:24:31.145Z,102857.53
2022-12-18T07:26:57.407Z,102870.88
2022-12-18T07:29:23.802Z,102876.31
2022-12-18T07:31:50.206Z,102876.16
2022-12-18T07:34:17.482Z,102871.94
2022-12-18T07:36:43.966Z,102881.03
2022-12-18T07:39:11.824Z,102883.03
2022-12-18T07:41:41.322Z,102890.16
2022-12-18T07:44:11.732Z,102902.41
2022-12-18T07:46:38.006Z,102907.53
2022-12-18T07:49:04.541Z,102909.34
2022-12-18T07:51:30.941Z,102911.00
2022-12-18T07:53:57.700Z,102912.97
2022-12-18T07:56:29.024Z,102906.38
2022-12-18T07:58:56.862Z,102917.72
2022-12-18T08:01:23.421Z,102913.31
2022-12-18T08:03:49.947Z,102916.06
2022-12-18T08:06:18.686Z,102914.72
2022-12-18T08:08:44.969Z,102913.84
2022-12-18T08:11:11.287Z,102913.25
2022-12-18T08:13:38.042Z,102905.91
2022-12-18T08:16:06.711Z,102906.22
2022-12-18T08:18:33.343Z,102913.50
2022-12-18T08:21:07.961Z,102910.22
2022-12-18T08:23:37.984Z,102904.84
2022-12-18T08:26:07.211Z,102894.00
2022-12-18T08:28:34.115Z,102891.94
2022-12-18T08:31:00.928Z,102897.00
2022-12-18T08:33:27.704Z,102905.03
2022-12-18T08:35:54.077Z,102899.63
2022-12-18T08:38:20.384Z,102896.47
2022-12-18T08:40:46.657Z,102896.22
2022-12-18T08:43:31.847Z,102889.44
2022-12-18T08:45:58.293Z,102891.75
2022-12-18T08:48:24.603Z,102889.50
2022-12-18T08:50:58.219Z,102883.97
2022-12-18T08:53:25.109Z,102878.38
2022-12-18T08:55:51.538Z,102885.97
2022-12-18T08:58:17.779Z,102882.66
2022-12-18T09:00:44.267Z,102873.47
2022-12-18T09:03:12.770Z,102888.47
2022-12-18T09:05:39.077Z,102888.63
2022-12-18T09:08:05.329Z,102893.19
2022-12-18T09:10:31.568Z,102895.50
2022-12-18T09:12:57.833Z,102898.53
2022-12-18T09:15:24.167Z,102907.31
2022-12-18T09:17:50.905Z,102908.72
2022-12-18T09:20:17.564Z,102901.63
2022-12-18T09:22:44.489Z,102895.81
2022-12-18T09:25:10.846Z,102903.41
2022-12-18T09:27:37.329Z,102889.97
2022-12-18T09:30:04.050Z,102899.22
2022-12-18T09:32:30.302Z,102893.81
2022-12-18T09:34:56.555Z,102892.47
2022-12-18T09:37:22.843Z,102893.72
2022-12-18T09:39:49.095Z,102901.28
2022-12-18T09:42:22.126Z,102901.78
2022-12-18T09:44:53.286Z,102905.72
2022-12-18T09:47:24.360Z,102901.06
2022-12-18T09:49:53.575Z,102905.94
2022-12-18T09:52:23.614Z,102895.66
2022-12-18T09:54:55.959Z,102895.22
2022-12-18T09:57:23.076Z,102885.84
2022-12-18T10:00:15.382Z,102881.34
2022-12-18T10:02:41.785Z,102891.50
2022-12-18T10:05:11.386Z,102895.28
2022-12-18T10:07:56.478Z,102897.28
2022-12-18T10:10:32.025Z,102903.03
2022-12-18T10:13:12.271Z,102903.06
2022-12-18T10:15:52.270Z,102908.66
2022-12-18T10:18:33.589Z,102913.50
2022-12-18T10:21:04.882Z,102907.91
2022-12-18T10:23:48.233Z,102907.16
2022-12-18T10:26:14.884Z,102895.94
2022-12-18T10:28:42.315Z,102894.56
2022-12-18T10:31:16.981Z,102893.50
2022-12-18T10:33:43.564Z,102900.31
2022-12-18T10:36:09.928Z,102896.78
2022-12-18T10:38:36.326Z,102907.69
2022-12-18T10:41:05.613Z,102912.84
2022-12-18T10:43:33.165Z,102913.75
2022-12-18T10:46:08.925Z,102908.28
2022-12-18T10:48:37.704Z,102922.53
2022-12-18T10:51:12.778Z,102913.41
2022-12-18T10:53:40.787Z,102909.00
2022-12-18T10:56:07.412Z,102909.59
2022-12-18T10:58:35.370Z,102911.41
2022-12-18T11:01:07.645Z,102912.47
2022-12-18T11:03:37.042Z,102904.41
2022-12-18T11:06:13.531Z,102898.31
2022-12-18T11:08:40.221Z,102910.41
2022-12-18T11:11:11.141Z,102904.91
2022-12-18T11:13:37.442Z,102911.16
2022-12-18T11:16:04.475Z,102912.22
2022-12-18T11:18:32.776Z,102908.41
2022-12-18T11:21:12.772Z,102909.56
2022-12-18T11:23:47.198Z,102902.53
2022-12-18T11:26:13.999Z,102910.75
2022-12-18T11:28:43.648Z,102887.84
2022-12-18T11:31:16.155Z,102893.63
2022-12-18T11:34:04.832Z,102887.75
2022-12-18T11:36:37.529Z,102886.22
2022-12-18T11:39:11.822Z,102881.41
2022-12-18T11:42:05.889Z,102890.19
2022-12-18T11:47:06.221Z,102888.81
2022-12-18T11:49:36.549Z,102889.06
2022-12-18T11:52:10.816Z,102893.75
2022-12-18T11:54:37.172Z,102891.44
2022-12-18T11:57:23.004Z,102880.78
2022-12-18T11:59:56.753Z,102881.38
2022-12-18T12:02:38.389Z,102891.22
2022-12-18T12:05:04.738Z,102886.41
2022-12-18T12:07:47.703Z,102882.38
2022-12-18T12:10:16.747Z,102880.31
2022-12-18T12:13:01.982Z,102865.94
2022-12-18T12:15:28.226Z,102858.69
2022-12-18T12:18:27.207Z,102849.47
2022-12-18T12:21:08.178Z,102844.09
2022-12-18T12:23:34.838Z,102842.69
2022-12-18T12:26:01.172Z,102855.22
2022-12-18T12:28:47.799Z,102849.63
2022-12-18T12:31:30.162Z,102844.25
2022-12-18T12:34:07.913Z,102839.81
2022-12-18T12:36:40.162Z,102846.41
2022-12-18T12:39:11.481Z,102838.16
2022-12-18T12:41:58.235Z,102833.69
2022-12-18T12:44:36.556Z,102826.31
2022-12-18T12:47:07.569Z,102815.06
2022-12-18T12:49:39.051Z,102812.00
2022-12-18T12:52:11.873Z,102808.78
2022-12-18T12:54:38.244Z,102812.69
2022-12-18T12:57:07.944Z,102801.47
2022-12-18T12:59:41.040Z,102794.19
2022-12-18T13:02:16.508Z,102788.13
2022-12-18T13:04:50.708Z,102784.22
2022-12-18T13:07:25.072Z,102784.22
2022-12-18T13:10:12.058Z,102764.88
2022-12-18T13:12:58.090Z,102762.78
2022-12-18T13:15:26.952Z,102752.06
2022-12-18T13:18:05.072Z,102752.22
2022-12-18T13:20:35.331Z,102755.34
2022-12-18T13:23:01.716Z,102753.53
2022-12-18T13:25:38.052Z,102759.63
2022-12-18T13:28:12.460Z,102767.72
2022-12-18T13:30:43.745Z,102769.59
2022-12-18T13:33:19.486Z,102776.31
2022-12-18T13:35:48.809Z,102777.88
2022-12-18T13:38:25.039Z,102781.78
2022-12-18T13:40:51.267Z,102777.75
2022-12-18T13:43:20.659Z,102782.69
2022-12-18T13:45:50.544Z,102768.47
2022-12-18T13:48:21.161Z,102770.59
2022-12-18T13:51:13.583Z,102780.09
2022-12-18T13:53:48.996Z,102778.06
2022-12-18T13:56:26.278Z,102774.16
2022-12-18T13:59:09.398Z,102780.38
2022-12-18T14:01:36.107Z,102783.03
2022-12-18T14:04:12.806Z,102779.13
2022-12-18T14:06:39.446Z,102782.66
2022-12-18T14:09:06.232Z,102772.38
2022-12-18T14:11:35.863Z,102787.91
2022-12-18T14:14:02.523Z,102792.47
2022-12-18T14:16:29.302Z,102787.63
2022-12-18T14:18:59.104Z,102788.09
2022-12-18T14:21:35.960Z,102792.19
2022-12-18T14:24:15.186Z,102794.50
2022-12-18T14:26:44.083Z,102787.88
2022-12-18T14:29:22.584Z,102772.56
2022-12-18T14:32:13.348Z,102774.56
2022-12-18T14:34:43.198Z,102775.50
2022-12-18T14:37:10.843Z,102772.03
2022-12-18T14:39:37.099Z,102781.28
2022-12-18T14:42:03.430Z,102777.66
2022-12-18T14:44:34.858Z,102774.63
2022-12-18T14:47:16.983Z,102769.31
2022-12-18T14:49:43.963Z,102770.53
2022-12-18T14:52:23.928Z,102764.19
2022-12-18T14:54:51.096Z,102762.06
2022-12-18T14:57:17.302Z,102761.00
2022-12-18T14:59:43.544Z,102764.66
2022-12-18T15:02:16.791Z,102764.78
2022-12-18T15:04:44.940Z,102770.69
2022-12-18T15:07:11.255Z,102764.66
2022-12-18T15:09:38.485Z,102763.13
2022-12-18T15:12:05.243Z,102761.63
2022-12-18T15:14:41.739Z,102755.25
2022-12-18T15:17:17.492Z,102749.19
2022-12-18T15:19:44.727Z,102744.31
2022-12-18T15:22:20.124Z,102748.88
2022-12-18T15:24:48.181Z,102740.53
2022-12-18T15:27:36.376Z,102732.03
2022-12-18T15:30:17.150Z,102732.94
2022-12-18T15:32:43.476Z,102731.41
2022-12-18T15:35:09.776Z,102727.03
2022-12-18T15:37:36.179Z,102720.81
2022-12-18T15:40:03.195Z,102724.31
2022-12-18T15:42:48.494Z,102715.03
2022-12-18T15:45:15.833Z,102717.03
2022-12-18T15:47:44.777Z,102725.03
2022-12-18T15:50:11.075Z,102724.28
2022-12-18T15:52:40.959Z,102719.56
2022-12-18T15:55:44.353Z,102718.03
2022-12-18T15:58:11.279Z,102713.94
2022-12-18T16:00:39.963Z,102702.84
2022-12-18T16:03:06.936Z,102705.59
2022-12-18T16:05:33.423Z,102696.34
2022-12-18T16:07:59.753Z,102689.34
2022-12-18T16:10:27.122Z,102693.78
2022-12-18T16:12:53.376Z,102699.34
2022-12-18T16:15:24.240Z,102693.44
2022-12-18T16:17:51.149Z,102692.69
2022-12-18T16:20:18.399Z,102694.47
2022-12-18T16:22:48.232Z,102693.56
2022-12-18T16:25:25.253Z,102678.09
2022-12-18T16:27:51.990Z,102668.88
2022-12-18T16:30:20.049Z,102655.22
2022-12-18T16:32:46.681Z,102660.50
2022-12-18T16:35:14.053Z,102657.28
2022-12-18T16:37:40.892Z,102672.88
2022-12-18T16:40:09.776Z,102671.50
2022-12-18T16:42:37.035Z,102678.75
2022-12-18T16:45:03.997Z,102672.84
2022-12-18T16:47:30.262Z,102667.97
2022-12-18T16:49:56.564Z,102671.59
2022-12-18T16:52:22.855Z,102670.06
2022-12-18T16:54:49.194Z,102665.19
2022-12-18T16:57:17.319Z,102661.84
2022-12-18T16:59:43.833Z,102649.09
2022-12-18T17:02:18.058Z,102644.72
2022-12-18T17:04:46.672Z,102639.56
2022-12-18T17:07:13.099Z,102638.03
2022-12-18T17:09:39.464Z,102645.63
2022-12-18T17:12:06.032Z,102641.22
2022-12-18T17:14:33.021Z,102633.63
2022-12-18T17:19:48.679Z,102620.59
2022-12-18T17:22:14.921Z,102623.31
2022-12-18T17:24:41.178Z,102609.41
2022-12-18T17:27:08.761Z,102603.47
2022-12-18T17:29:35.036Z,102605.91
2022-12-18T17:32:01.268Z,102594.97
2022-12-18T17:34:27.807Z,102599.22
2022-12-18T17:36:54.544Z,102585.72
2022-12-18T17:39:21.229Z,102580.97
2022-12-18T17:41:48.186Z,102585.63
2022-12-18T17:44:14.903Z,102591.06
2022-12-18T17:46:41.329Z,102591.22
2022-12-18T17:49:07.978Z,102587.22
2022-12-18T17:51:34.313Z,102579.94
2022-12-18T17:54:00.602Z,102579.56
2022-12-18T17:56:27.229Z,102570.72
2022-12-18T17:58:53.531Z,102577.03
2022-12-18T18:01:21.420Z,102569.72
2022-12-18T18:03:48.987Z,102561.75
2022-12-18T18:06:18.249Z,102554.00
2022-12-18T18:08:44.896Z,102555.84
2022-12-18T18:11:31.229Z,102557.91
2022-12-18T18:14:04.530Z,102539.97
2022-12-18T18:16:35.968Z,102534.06
2022-12-18T18:19:04.220Z,102529.63
2022-12-18T18:21:30.957Z,102530.13
2022-12-18T18:24:03.377Z,102523.03
2022-12-18T18:26:33.422Z,102532.97
2022-12-18T18:29:00.558Z,102522.00
2022-12-18T18:31:29.859Z,102521.09
2022-12-18T18:33:56.672Z,102507.56
2022-12-18T18:36:23.651Z,102510.28
2022-12-18T18:38:50.367Z,102502.69
2022-12-18T18:41:16.741Z,102493.28
2022-12-18T18:43:43.377Z,102488.00
2022-12-18T18:46:11.710Z,102477.28
2022-12-18T18:48:38.033Z,102487.19
2022-12-18T18:51:07.186Z,102477.53
2022-12-18T18:53:38.108Z,102477.53
2022-12-18T18:56:37.739Z,102465.53
2022-12-18T18:58:51.732Z,102465.53
2022-12-18T19:01:19.604Z,102469.13
2022-12-18T19:03:46.613Z,102469.91
2022-12-18T19:06:15.227Z,102465.78
2022-12-18T19:08:41.817Z,102450.28
2022-12-18T19:11:33.139Z,102463.84
2022-12-18T19:14:04.142Z,102448.63
2022-12-18T19:16:30.434Z,102444.25
2022-12-18T19:19:01.431Z,102438.97
2022-12-18T19:21:28.797Z,102442.84
2022-12-18T19:23:57.417Z,102440.88
2022-12-18T19:26:27.842Z,102429.53
2022-12-18T19:28:59.888Z,102421.78
2022-12-18T19:31:30.389Z,102419.59
2022-12-18T19:34:00.183Z,102423.06
2022-12-18T19:36:27.868Z,102420.75
2022-12-18T19:38:55.577Z,102404.34
2022-12-18T19:41:22.233Z,102408.00
2022-12-18T19:43:49.134Z,102397.81
2022-12-18T19:46:17.108Z,102384.41
2022-12-18T19:48:45.182Z,102396.53
2022-12-18T19:51:14.569Z,102387.13
2022-12-18T19:53:40.915Z,102378.97
2022-12-18T19:56:12.246Z,102379.09
2022-12-18T19:59:03.923Z,102372.28
2022-12-18T20:01:30.789Z,102365.69
2022-12-18T20:03:57.571Z,102372.13
2022-12-18T20:06:27.879Z,102360.41
2022-12-18T20:08:59.089Z,102359.75
2022-12-18T20:11:26.786Z,102359.13
2022-12-18T20:13:53.064Z,102350.59
2022-12-18T20:16:19.397Z,102342.19
2022-12-18T20:18:45.736Z,102339.22
2022-12-18T20:21:14.041Z,102337.69
2022-12-18T20:23:41.270Z,102354.47
2022-12-18T20:26:08.699Z,102341.56
2022-12-18T20:28:35.147Z,102344.53
2022-12-18T20:31:02.921Z,102338.59
2022-12-18T20:33:29.522Z,102335.34
2022-12-18T20:36:00.113Z,102329.25
2022-12-18T20:38:27.335Z,102325.16
2022-12-18T20:40:54.338Z,102327.84
2022-12-18T20:43:20.621Z,102322.91
2022-12-18T20:45:46.977Z,102324.75
2022-12-18T20:48:13.584Z,102311.06
2022-12-18T20:50:39.942Z,102304.97
2022-12-18T20:53:06.207Z,102301.59
2022-12-18T20:55:32.459Z,102299.94
2022-12-18T20:57:58.718Z,102299.16
2022-12-18T21:00:25.005Z,102285.59
2022-12-18T21:02:51.352Z,102289.88
2022-12-18T21:05:17.816Z,102281.19
2022-12-18T21:07:44.237Z,102288.28
2022-12-18T21:10:10.497Z,102279.66
2022-12-18T21:12:48.151Z,102269.47
2022-12-18T21:15:15.946Z,102282.47
2022-12-18T21:17:44.575Z,102267.22
2022-12-18T21:20:11.547Z,102257.41
2022-12-18T21:22:43.917Z,102257.81
2022-12-18T21:25:10.183Z,102249.81
2022-12-18T21:27:36.455Z,102239.47
2022-12-18T21:30:02.865Z,102225.03
2022-12-18T21:32:29.878Z,102234.56
2022-12-18T21:34:59.818Z,102244.38
2022-12-18T21:37:26.604Z,102235.44
2022-12-18T21:39:52.870Z,102226.81
2022-12-18T21:42:38.145Z,102218.41
2022-12-18T21:45:04.716Z,102210.53
2022-12-18T21:47:31.036Z,102207.81
2022-12-18T21:49:57.286Z,102196.69
2022-12-18T21:52:31.740Z,102186.38
2022-12-18T21:55:03.264Z,102188.41
2022-12-18T21:57:34.532Z,102192.56
2022-12-18T22:00:01.991Z,102208.06
2022-12-18T22:02:28.376Z,102203.16
2022-12-18T22:04:54.732Z,102204.03
2022-12-18T22:07:21.560Z,102203.25
2022-12-18T22:09:49.433Z,102213.84
2022-12-18T22:12:35.001Z,102225.09
2022-12-18T22:15:01.896Z,102234.75
2022-12-18T22:17:28.353Z,102246.09
2022-12-18T22:19:55.679Z,102229.97
2022-12-18T22:22:23.406Z,102237.94
2022-12-18T22:24:49.660Z,102237.41
2022-12-18T22:27:15.922Z,102226.41
2022-12-18T22:30:00.758Z,102221.25
2022-12-18T22:32:31.265Z,102233.41
2022-12-18T22:35:04.525Z,102203.03
2022-12-18T22:37:33.392Z,102191.81
2022-12-18T22:39:59.675Z,102190.59
2022-12-18T22:42:29.752Z,102184.53
2022-12-18T22:44:56.030Z,102166.44
2022-12-18T22:47:25.393Z,102173.28
2022-12-18T22:49:55.576Z,102164.88
2022-12-18T22:52:22.563Z,102166.22
2022-12-18T22:54:51.433Z,102169.56
2022-12-18T22:57:19.767Z,102160.78
2022-12-18T22:59:46.065Z,102153.84
2022-12-18T23:02:12.404Z,102153.72
2022-12-18T23:04:38.810Z,102146.63
2022-12-18T23:07:05.380Z,102144.78
2022-12-18T23:09:32.227Z,102129.53
2022-12-18T23:11:58.951Z,102117.16
2022-12-18T23:14:25.198Z,102103.34
2022-12-18T23:16:53.008Z,102103.00
2022-12-18T23:19:19.583Z,102099.50
2022-12-18T23:21:45.839Z,102100.03
2022-12-18T23:24:12.106Z,102089.69
2022-12-18T23:26:38.481Z,102080.03
2022-12-18T23:29:05.233Z,102082.63
2022-12-18T23:31:32.985Z,102082.50
2022-12-18T23:34:00.544Z,102091.03
2022-12-18T23:36:27.021Z,102080.56
2022-12-18T23:38:55.588Z,102077.88
2022-12-18T23:41:23.321Z,102077.13
2022-12-18T23:43:49.832Z,102082.16
2022-12-18T23:46:20.637Z,102077.00
2022-12-18T23:48:47.518Z,102067.13
2022-12-18T23:51:14.446Z,102056.66
2022-12-18T23:53:40.842Z,102048.78
2022-12-18T23:56:08.399Z,102057.31
2022-12-18T23:58:35.501Z,102054.75
